sensor_id;sensor_type;location;lat;lon;timestamp;pressure;altitude;pressure_sealevel;temperature;humidity
71907;BME280;59781;52.090;5.030;2023-09-19T00:01:08;100701.34;;;13.85;100.00
71907;BME280;59781;52.090;5.030;2023-09-19T00:03:35;100696.09;;;14.04;100.00
71907;BME280;59781;52.090;5.030;2023-09-19T00:06:06;100704.81;;;14.00;100.00
71907;BME280;59781;52.090;5.030;2023-09-19T00:08:33;100698.63;;;14.06;100.00
71907;BME280;59781;52.090;5.030;2023-09-19T00:11:00;100696.69;;;14.28;100.00
71907;BME280;59781;52.090;5.030;2023-09-19T00:13:33;100696.97;;;14.12;100.00
71907;BME280;59781;52.090;5.030;2023-09-19T00:16:01;100706.03;;;14.25;100.00
71907;BME280;59781;52.090;5.030;2023-09-19T00:18:36;100695.38;;;14.17;100.00
71907;BME280;59781;52.090;5.030;2023-09-19T00:21:03;100703.50;;;14.17;100.00
71907;BME280;59781;52.090;5.030;2023-09-19T00:23:30;100707.41;;;14.15;100.00
71907;BME280;59781;52.090;5.030;2023-09-19T00:26:00;100708.78;;;14.32;100.00
71907;BME280;59781;52.090;5.030;2023-09-19T00:28:26;100706.84;;;14.47;100.00
71907;BME280;59781;52.090;5.030;2023-09-19T00:30:53;100712.06;;;14.49;100.00
71907;BME280;59781;52.090;5.030;2023-09-19T00:33:22;100713.53;;;14.51;100.00
71907;BME280;59781;52.090;5.030;2023-09-19T00:35:51;100710.22;;;14.56;100.00
71907;BME280;59781;52.090;5.030;2023-09-19T00:38:19;100708.63;;;14.40;100.00
71907;BME280;59781;52.090;5.030;2023-09-19T00:40:53;100715.28;;;14.38;100.00
71907;BME280;59781;52.090;5.030;2023-09-19T00:43:21;100718.22;;;14.36;100.00
71907;BME280;59781;52.090;5.030;2023-09-19T00:45:52;100711.78;;;14.44;100.00
71907;BME280;59781;52.090;5.030;2023-09-19T00:48:21;100715.88;;;14.61;100.00
71907;BME280;59781;52.090;5.030;2023-09-19T00:50:50;100711.78;;;14.44;100.00
71907;BME280;59781;52.090;5.030;2023-09-19T00:53:21;100721.44;;;14.46;100.00
71907;BME280;59781;52.090;5.030;2023-09-19T00:55:49;100721.34;;;14.40;100.00
71907;BME280;59781;52.090;5.030;2023-09-19T00:58:17;100724.22;;;14.31;100.00
71907;BME280;59781;52.090;5.030;2023-09-19T01:00:44;100726.00;;;14.18;100.00
71907;BME280;59781;52.090;5.030;2023-09-19T01:03:11;100729.72;;;14.45;100.00
71907;BME280;59781;52.090;5.030;2023-09-19T01:05:40;100724.06;;;14.40;100.00
71907;BME280;59781;52.090;5.030;2023-09-19T01:08:06;100722.78;;;14.35;100.00
71907;BME280;59781;52.090;5.030;2023-09-19T01:10:33;100721.09;;;14.34;100.00
71907;BME280;59781;52.090;5.030;2023-09-19T01:13:17;100729.88;;;14.37;100.00
71907;BME280;59781;52.090;5.030;2023-09-19T01:16:16;100728.31;;;14.49;100.00
71907;BME280;59781;52.090;5.030;2023-09-19T01:19:25;100728.78;;;14.31;100.00
71907;BME280;59781;52.090;5.030;2023-09-19T01:22:10;100719.97;;;14.50;100.00
71907;BME280;59781;52.090;5.030;2023-09-19T01:25:28;100714.13;;;14.47;100.00
71907;BME280;59781;52.090;5.030;2023-09-19T01:28:31;100709.25;;;14.35;100.00
71907;BME280;59781;52.090;5.030;2023-09-19T01:31:11;100705.66;;;14.35;100.00
71907;BME280;59781;52.090;5.030;2023-09-19T01:33:59;100711.59;;;14.45;100.00
71907;BME280;59781;52.090;5.030;2023-09-19T01:36:37;100710.22;;;14.28;100.00
71907;BME280;59781;52.090;5.030;2023-09-19T01:39:10;100712.78;;;14.36;100.00
71907;BME280;59781;52.090;5.030;2023-09-19T01:41:55;100724.31;;;14.17;100.00
71907;BME280;59781;52.090;5.030;2023-09-19T01:45:11;100728.56;;;13.98;100.00
71907;BME280;59781;52.090;5.030;2023-09-19T01:47:51;100732.09;;;13.98;100.00
71907;BME280;59781;52.090;5.030;2023-09-19T01:50:36;100733.97;;;13.98;100.00
71907;BME280;59781;52.090;5.030;2023-09-19T01:53:30;100729.38;;;13.98;100.00
71907;BME280;59781;52.090;5.030;2023-09-19T01:56:01;100736.53;;;14.06;100.00
71907;BME280;59781;52.090;5.030;2023-09-19T01:58:41;100740.22;;;13.98;100.00
71907;BME280;59781;52.090;5.030;2023-09-19T02:01:19;100735.94;;;14.11;100.00
71907;BME280;59781;52.090;5.030;2023-09-19T02:03:50;100725.31;;;14.09;100.00
71907;BME280;59781;52.090;5.030;2023-09-19T02:06:18;100730.19;;;14.20;100.00
71907;BME280;59781;52.090;5.030;2023-09-19T02:08:45;100736.53;;;14.06;100.00
71907;BME280;59781;52.090;5.030;2023-09-19T02:11:13;100729.06;;;14.43;100.00
71907;BME280;59781;52.090;5.030;2023-09-19T02:13:40;100726.03;;;14.24;100.00
71907;BME280;59781;52.090;5.030;2023-09-19T02:16:06;100735.31;;;14.37;100.00
71907;BME280;59781;52.090;5.030;2023-09-19T02:18:32;100737.75;;;14.03;100.00
71907;BME280;59781;52.090;5.030;2023-09-19T02:21:01;100729.63;;;14.03;100.00
71907;BME280;59781;52.090;5.030;2023-09-19T02:23:27;100729.63;;;14.31;100.00
71907;BME280;59781;52.090;5.030;2023-09-19T02:25:56;100734.06;;;14.11;100.00
71907;BME280;59781;52.090;5.030;2023-09-19T02:28:29;100741.31;;;13.83;100.00
71907;BME280;59781;52.090;5.030;2023-09-19T02:30:58;100732.38;;;13.82;100.00
71907;BME280;59781;52.090;5.030;2023-09-19T02:33:24;100739.66;;;13.60;100.00
71907;BME280;59781;52.090;5.030;2023-09-19T02:35:56;100736.00;;;13.68;100.00
71907;BME280;59781;52.090;5.030;2023-09-19T02:38:26;100739.22;;;13.78;100.00
71907;BME280;59781;52.090;5.030;2023-09-19T02:40:53;100741.31;;;13.83;100.00
71907;BME280;59781;52.090;5.030;2023-09-19T02:43:21;100732.19;;;13.62;100.00
71907;BME280;59781;52.090;5.030;2023-09-19T02:45:48;100739.75;;;13.67;100.00
71907;BME280;59781;52.090;5.030;2023-09-19T02:48:20;100746.56;;;13.63;100.00
71907;BME280;59781;52.090;5.030;2023-09-19T02:50:49;100745.59;;;13.70;100.00
71907;BME280;59781;52.090;5.030;2023-09-19T02:53:15;100741.09;;;13.77;100.00
71907;BME280;59781;52.090;5.030;2023-09-19T02:55:40;100742.78;;;13.57;100.00
71907;BME280;59781;52.090;5.030;2023-09-19T02:58:07;100741.53;;;13.60;100.00
71907;BME280;59781;52.090;5.030;2023-09-19T03:00:39;100743.44;;;13.66;100.00
71907;BME280;59781;52.090;5.030;2023-09-19T03:03:08;100739.41;;;13.55;100.00
71907;BME280;59781;52.090;5.030;2023-09-19T03:05:34;100749.34;;;13.69;100.00
71907;BME280;59781;52.090;5.030;2023-09-19T03:08:00;100742.19;;;13.62;100.00
71907;BME280;59781;52.090;5.030;2023-09-19T03:10:27;100750.59;;;13.73;100.00
71907;BME280;59781;52.090;5.030;2023-09-19T03:12:56;100753.06;;;13.68;100.00
71907;BME280;59781;52.090;5.030;2023-09-19T03:15:25;100742.25;;;13.68;100.00
71907;BME280;59781;52.090;5.030;2023-09-19T03:17:52;100726.72;;;13.77;100.00
71907;BME280;59781;52.090;5.030;2023-09-19T03:20:20;100733.06;;;13.91;100.00
71907;BME280;59781;52.090;5.030;2023-09-19T03:22:47;100745.31;;;13.65;100.00
71907;BME280;59781;52.090;5.030;2023-09-19T03:25:15;100743.00;;;13.62;100.00
71907;BME280;59781;52.090;5.030;2023-09-19T03:27:44;100745.41;;;13.51;100.00
71907;BME280;59781;52.090;5.030;2023-09-19T03:30:10;100730.19;;;13.71;100.00
71907;BME280;59781;52.090;5.030;2023-09-19T03:32:48;100719.50;;;13.63;100.00
71907;BME280;59781;52.090;5.030;2023-09-19T03:35:16;100729.25;;;13.57;100.00
71907;BME280;59781;52.090;5.030;2023-09-19T03:37:43;100725.03;;;13.55;100.00
71907;BME280;59781;52.090;5.030;2023-09-19T03:40:10;100729.41;;;13.56;100.00
71907;BME280;59781;52.090;5.030;2023-09-19T03:42:41;100731.22;;;13.48;100.00
71907;BME280;59781;52.090;5.030;2023-09-19T03:45:10;100749.25;;;13.63;100.00
71907;BME280;59781;52.090;5.030;2023-09-19T03:47:38;100724.50;;;13.66;100.00
71907;BME280;59781;52.090;5.030;2023-09-19T03:50:06;100734.66;;;13.57;100.00
71907;BME280;59781;52.090;5.030;2023-09-19T03:52:34;100734.06;;;13.62;100.00
71907;BME280;59781;52.090;5.030;2023-09-19T03:55:00;100743.59;;;13.58;100.00
71907;BME280;59781;52.090;5.030;2023-09-19T03:57:28;100745.84;;;13.75;100.00
71907;BME280;59781;52.090;5.030;2023-09-19T03:59:54;100753.63;;;13.64;100.00
71907;BME280;59781;52.090;5.030;2023-09-19T04:02:20;100752.25;;;13.68;100.00
71907;BME280;59781;52.090;5.030;2023-09-19T04:04:52;100753.50;;;13.72;100.00
71907;BME280;59781;52.090;5.030;2023-09-19T04:07:18;100752.47;;;13.73;100.00
71907;BME280;59781;52.090;5.030;2023-09-19T04:09:48;100756.34;;;13.85;100.00
71907;BME280;59781;52.090;5.030;2023-09-19T04:12:14;100757.66;;;13.68;100.00
71907;BME280;59781;52.090;5.030;2023-09-19T04:14:42;100762.06;;;13.54;100.00
71907;BME280;59781;52.090;5.030;2023-09-19T04:17:08;100772.13;;;13.60;100.00
71907;BME280;59781;52.090;5.030;2023-09-19T04:19:35;100778.78;;;13.58;100.00
71907;BME280;59781;52.090;5.030;2023-09-19T04:22:02;100774.00;;;13.60;100.00
71907;BME280;59781;52.090;5.030;2023-09-19T04:24:28;100778.19;;;13.41;100.00
71907;BME280;59781;52.090;5.030;2023-09-19T04:26:54;100780.03;;;13.40;100.00
71907;BME280;59781;52.090;5.030;2023-09-19T04:29:20;100782.25;;;13.52;100.00
71907;BME280;59781;52.090;5.030;2023-09-19T04:31:46;100786.06;;;13.57;100.00
71907;BME280;59781;52.090;5.030;2023-09-19T04:34:12;100788.69;;;13.51;100.00
71907;BME280;59781;52.090;5.030;2023-09-19T04:36:41;100792.22;;;13.51;100.00
71907;BME280;59781;52.090;5.030;2023-09-19T04:39:07;100794.66;;;13.46;100.00
71907;BME280;59781;52.090;5.030;2023-09-19T04:41:33;100782.56;;;13.42;100.00
71907;BME280;59781;52.090;5.030;2023-09-19T04:44:00;100783.94;;;13.74;100.00
71907;BME280;59781;52.090;5.030;2023-09-19T05:26:26;100807.00;;;13.34;100.00
71907;BME280;59781;52.090;5.030;2023-09-19T05:28:52;100793.78;;;13.60;100.00
71907;BME280;59781;52.090;5.030;2023-09-19T05:31:18;100798.28;;;13.53;100.00
71907;BME280;59781;52.090;5.030;2023-09-19T05:33:43;100800.06;;;13.46;100.00
71907;BME280;59781;52.090;5.030;2023-09-19T05:36:09;100808.06;;;13.54;100.00
71907;BME280;59781;52.090;5.030;2023-09-19T05:38:37;100801.72;;;13.62;100.00
71907;BME280;59781;52.090;5.030;2023-09-19T05:41:07;100805.84;;;13.79;100.00
71907;BME280;59781;52.090;5.030;2023-09-19T05:43:35;100801.00;;;13.96;100.00
71907;BME280;59781;52.090;5.030;2023-09-19T05:46:03;100800.75;;;13.91;100.00
71907;BME280;59781;52.090;5.030;2023-09-19T05:48:28;100801.84;;;13.75;100.00
71907;BME280;59781;52.090;5.030;2023-09-19T05:50:54;100808.81;;;13.84;100.00
71907;BME280;59781;52.090;5.030;2023-09-19T05:53:20;100810.03;;;13.82;100.00
71907;BME280;59781;52.090;5.030;2023-09-19T05:55:45;100819.09;;;13.74;100.00
71907;BME280;59781;52.090;5.030;2023-09-19T05:58:11;100824.31;;;13.75;100.00
71907;BME280;59781;52.090;5.030;2023-09-19T06:00:42;100822.41;;;13.91;100.00
71907;BME280;59781;52.090;5.030;2023-09-19T06:03:10;100826.03;;;13.98;100.00
71907;BME280;59781;52.090;5.030;2023-09-19T06:05:38;100822.13;;;13.86;100.00
71907;BME280;59781;52.090;5.030;2023-09-19T06:08:05;100829.81;;;14.03;100.00
71907;BME280;59781;52.090;5.030;2023-09-19T06:10:34;100834.19;;;14.04;100.00
71907;BME280;59781;52.090;5.030;2023-09-19T06:13:03;100827.56;;;14.07;100.00
71907;BME280;59781;52.090;5.030;2023-09-19T06:15:35;100825.19;;;14.19;100.00
71907;BME280;59781;52.090;5.030;2023-09-19T06:18:01;100830.97;;;14.16;100.00
71907;BME280;59781;52.090;5.030;2023-09-19T06:20:28;100831.88;;;14.23;100.00
71907;BME280;59781;52.090;5.030;2023-09-19T06:22:54;100831.31;;;14.27;100.00
71907;BME280;59781;52.090;5.030;2023-09-19T06:25:20;100825.91;;;14.34;100.00
71907;BME280;59781;52.090;5.030;2023-09-19T06:27:48;100829.47;;;14.34;100.00
71907;BME280;59781;52.090;5.030;2023-09-19T06:30:17;100827.47;;;14.22;100.00
71907;BME280;59781;52.090;5.030;2023-09-19T06:32:44;100826.25;;;14.24;100.00
71907;BME280;59781;52.090;5.030;2023-09-19T06:35:14;100824.53;;;14.17;100.00
71907;BME280;59781;52.090;5.030;2023-09-19T06:37:42;100818.56;;;14.49;100.00
71907;BME280;59781;52.090;5.030;2023-09-19T06:40:12;100817.03;;;14.68;100.00
71907;BME280;59781;52.090;5.030;2023-09-19T06:42:44;100818.03;;;14.60;100.00
71907;BME280;59781;52.090;5.030;2023-09-19T06:45:12;100827.91;;;14.75;100.00
71907;BME280;59781;52.090;5.030;2023-09-19T06:47:46;100822.47;;;14.75;100.00
71907;BME280;59781;52.090;5.030;2023-09-19T06:50:17;100817.03;;;14.68;100.00
71907;BME280;59781;52.090;5.030;2023-09-19T06:52:47;100825.56;;;15.00;100.00
71907;BME280;59781;52.090;5.030;2023-09-19T06:55:16;100827.03;;;15.02;100.00
71907;BME280;59781;52.090;5.030;2023-09-19T06:57:43;100832.97;;;15.19;100.00
71907;BME280;59781;52.090;5.030;2023-09-19T07:00:10;100826.00;;;15.51;100.00
71907;BME280;59781;52.090;5.030;2023-09-19T07:05:34;100815.97;;;15.45;100.00
71907;BME280;59781;52.090;5.030;2023-09-19T07:08:05;100825.44;;;15.69;100.00
71907;BME280;59781;52.090;5.030;2023-09-19T07:10:32;100826.72;;;15.66;100.00
71907;BME280;59781;52.090;5.030;2023-09-19T07:13:00;100822.13;;;15.67;100.00
71907;BME280;59781;52.090;5.030;2023-09-19T07:15:35;100822.75;;;15.82;100.00
71907;BME280;59781;52.090;5.030;2023-09-19T07:18:05;100830.09;;;15.88;100.00
71907;BME280;59781;52.090;5.030;2023-09-19T07:20:32;100831.13;;;15.74;100.00
71907;BME280;59781;52.090;5.030;2023-09-19T07:23:00;100838.22;;;15.82;100.00
71907;BME280;59781;52.090;5.030;2023-09-19T07:25:27;100828.66;;;16.19;100.00
71907;BME280;59781;52.090;5.030;2023-09-19T07:27:55;100831.56;;;15.97;100.00
71907;BME280;59781;52.090;5.030;2023-09-19T07:30:21;100839.31;;;16.00;100.00
71907;BME280;59781;52.090;5.030;2023-09-19T07:32:47;100838.69;;;16.12;100.00
71907;BME280;59781;52.090;5.030;2023-09-19T07:35:13;100836.41;;;16.42;100.00
71907;BME280;59781;52.090;5.030;2023-09-19T07:37:40;100833.25;;;16.58;100.00
71907;BME280;59781;52.090;5.030;2023-09-19T07:40:06;100827.78;;;16.91;100.00
71907;BME280;59781;52.090;5.030;2023-09-19T07:42:38;100831.78;;;16.95;100.00
71907;BME280;59781;52.090;5.030;2023-09-19T07:45:07;100832.00;;;16.60;100.00
71907;BME280;59781;52.090;5.030;2023-09-19T07:47:34;100833.44;;;16.96;100.00
71907;BME280;59781;52.090;5.030;2023-09-19T07:50:01;100835.09;;;16.97;100.00
71907;BME280;59781;52.090;5.030;2023-09-19T07:52:29;100835.28;;;17.09;100.00
71907;BME280;59781;52.090;5.030;2023-09-19T07:54:55;100838.03;;;16.96;100.00
71907;BME280;59781;52.090;5.030;2023-09-19T07:57:23;100839.78;;;17.41;100.00
71907;BME280;59781;52.090;5.030;2023-09-19T07:59:48;100844.03;;;17.31;100.00
71907;BME280;59781;52.090;5.030;2023-09-19T08:02:14;100836.41;;;17.46;100.00
71907;BME280;59781;52.090;5.030;2023-09-19T08:04:43;100834.00;;;17.69;100.00
71907;BME280;59781;52.090;5.030;2023-09-19T08:07:14;100832.50;;;17.80;100.00
71907;BME280;59781;52.090;5.030;2023-09-19T08:09:40;100840.09;;;17.71;100.00
71907;BME280;59781;52.090;5.030;2023-09-19T08:12:07;100837.31;;;17.78;100.00
71907;BME280;59781;52.090;5.030;2023-09-19T08:14:36;100828.88;;;17.86;100.00
71907;BME280;59781;52.090;5.030;2023-09-19T08:17:03;100827.69;;;18.07;100.00
71907;BME280;59781;52.090;5.030;2023-09-19T08:19:31;100821.31;;;18.45;100.00
71907;BME280;59781;52.090;5.030;2023-09-19T08:22:00;100806.50;;;18.34;100.00
71907;BME280;59781;52.090;5.030;2023-09-19T08:24:28;100820.88;;;18.23;100.00
71907;BME280;59781;52.090;5.030;2023-09-19T08:26:57;100825.19;;;17.67;100.00
71907;BME280;59781;52.090;5.030;2023-09-19T08:29:25;100820.22;;;17.96;100.00
71907;BME280;59781;52.090;5.030;2023-09-19T08:31:54;100829.94;;;17.85;100.00
71907;BME280;59781;52.090;5.030;2023-09-19T08:34:22;100834.88;;;17.70;100.00
71907;BME280;59781;52.090;5.030;2023-09-19T08:36:53;100819.13;;;17.65;100.00
71907;BME280;59781;52.090;5.030;2023-09-19T08:39:23;100820.63;;;17.61;100.00
71907;BME280;59781;52.090;5.030;2023-09-19T08:41:58;100817.22;;;17.66;100.00
71907;BME280;59781;52.090;5.030;2023-09-19T08:44:25;100820.22;;;17.96;100.00
71907;BME280;59781;52.090;5.030;2023-09-19T08:46:55;100808.19;;;18.10;100.00
71907;BME280;59781;52.090;5.030;2023-09-19T08:50:04;100817.19;;;18.35;100.00
71907;BME280;59781;52.090;5.030;2023-09-19T08:52:42;100815.13;;;18.81;100.00
71907;BME280;59781;52.090;5.030;2023-09-19T08:55:13;100808.34;;;18.40;100.00
71907;BME280;59781;52.090;5.030;2023-09-19T08:57:49;100818.03;;;18.61;100.00
71907;BME280;59781;52.090;5.030;2023-09-19T09:00:16;100809.06;;;18.79;100.00
71907;BME280;59781;52.090;5.030;2023-09-19T09:02:44;100815.44;;;18.91;100.00
71907;BME280;59781;52.090;5.030;2023-09-19T09:05:12;100811.13;;;19.68;100.00
71907;BME280;59781;52.090;5.030;2023-09-19T09:07:41;100810.13;;;19.14;100.00
71907;BME280;59781;52.090;5.030;2023-09-19T09:10:09;100798.69;;;18.62;100.00
71907;BME280;59781;52.090;5.030;2023-09-19T09:12:35;100800.88;;;18.54;100.00
71907;BME280;59781;52.090;5.030;2023-09-19T09:15:05;100811.41;;;18.50;100.00
71907;BME280;59781;52.090;5.030;2023-09-19T09:17:31;100808.00;;;18.05;100.00
71907;BME280;59781;52.090;5.030;2023-09-19T09:19:57;100807.00;;;17.99;100.00
71907;BME280;59781;52.090;5.030;2023-09-19T09:22:24;100801.16;;;17.58;100.00
71907;BME280;59781;52.090;5.030;2023-09-19T09:24:56;100810.50;;;17.68;100.00
71907;BME280;59781;52.090;5.030;2023-09-19T09:27:30;100805.66;;;17.77;100.00
71907;BME280;59781;52.090;5.030;2023-09-19T09:29:58;100807.97;;;17.80;100.00
71907;BME280;59781;52.090;5.030;2023-09-19T09:32:28;100804.97;;;18.20;100.00
71907;BME280;59781;52.090;5.030;2023-09-19T09:35:00;100785.31;;;19.16;100.00
71907;BME280;59781;52.090;5.030;2023-09-19T09:37:27;100795.50;;;18.90;100.00
71907;BME280;59781;52.090;5.030;2023-09-19T09:39:57;100790.50;;;18.62;100.00
71907;BME280;59781;52.090;5.030;2023-09-19T09:42:37;100809.41;;;18.39;100.00
71907;BME280;59781;52.090;5.030;2023-09-19T09:47:54;100803.34;;;18.12;100.00
71907;BME280;59781;52.090;5.030;2023-09-19T09:50:33;100810.28;;;18.33;100.00
71907;BME280;59781;52.090;5.030;2023-09-19T09:53:23;100799.94;;;18.42;100.00
71907;BME280;59781;52.090;5.030;2023-09-19T09:56:04;100793.97;;;18.26;100.00
71907;BME280;59781;52.090;5.030;2023-09-19T09:58:36;100813.44;;;17.80;100.00
71907;BME280;59781;52.090;5.030;2023-09-19T10:01:14;100815.31;;;18.11;100.00
71907;BME280;59781;52.090;5.030;2023-09-19T10:03:42;100803.97;;;18.39;100.00
71907;BME280;59781;52.090;5.030;2023-09-19T10:06:14;100801.50;;;18.99;100.00
71907;BME280;59781;52.090;5.030;2023-09-19T10:09:09;100797.16;;;19.10;100.00
71907;BME280;59781;52.090;5.030;2023-09-19T10:11:42;100789.56;;;18.75;100.00
71907;BME280;59781;52.090;5.030;2023-09-19T10:14:15;100784.34;;;18.92;100.00
71907;BME280;59781;52.090;5.030;2023-09-19T10:16:48;100796.31;;;18.73;100.00
71907;BME280;59781;52.090;5.030;2023-09-19T10:19:23;100774.63;;;19.63;100.00
71907;BME280;59781;52.090;5.030;2023-09-19T10:21:56;100757.91;;;19.71;100.00
71907;BME280;59781;52.090;5.030;2023-09-19T10:24:27;100764.56;;;20.40;100.00
71907;BME280;59781;52.090;5.030;2023-09-19T10:26:55;100758.59;;;20.90;100.00
71907;BME280;59781;52.090;5.030;2023-09-19T10:29:21;100754.44;;;20.87;100.00
71907;BME280;59781;52.090;5.030;2023-09-19T10:31:47;100756.94;;;20.19;100.00
71907;BME280;59781;52.090;5.030;2023-09-19T10:34:17;100752.22;;;19.72;100.00
71907;BME280;59781;52.090;5.030;2023-09-19T10:36:46;100748.25;;;20.10;100.00
71907;BME280;59781;52.090;5.030;2023-09-19T10:39:16;100745.03;;;20.83;100.00
71907;BME280;59781;52.090;5.030;2023-09-19T10:41:50;100745.88;;;19.60;100.00
71907;BME280;59781;52.090;5.030;2023-09-19T10:44:25;100751.22;;;19.97;100.00
71907;BME280;59781;52.090;5.030;2023-09-19T10:46:52;100734.44;;;20.05;100.00
71907;BME280;59781;52.090;5.030;2023-09-19T10:49:20;100746.50;;;20.51;100.00
71907;BME280;59781;52.090;5.030;2023-09-19T10:51:49;100726.22;;;20.87;100.00
71907;BME280;59781;52.090;5.030;2023-09-19T10:54:23;100743.59;;;19.87;100.00
71907;BME280;59781;52.090;5.030;2023-09-19T10:56:54;100740.19;;;20.27;100.00
71907;BME280;59781;52.090;5.030;2023-09-19T10:59:24;100723.19;;;20.48;100.00
71907;BME280;59781;52.090;5.030;2023-09-19T11:01:53;100733.50;;;20.81;100.00
71907;BME280;59781;52.090;5.030;2023-09-19T11:04:30;100724.22;;;20.71;100.00
71907;BME280;59781;52.090;5.030;2023-09-19T11:09:52;100747.41;;;19.98;100.00
71907;BME280;59781;52.090;5.030;2023-09-19T11:15:03;100732.75;;;19.51;100.00
71907;BME280;59781;52.090;5.030;2023-09-19T11:17:40;100730.88;;;19.51;100.00
71907;BME280;59781;52.090;5.030;2023-09-19T11:30:45;100722.34;;;19.29;100.00
71907;BME280;59781;52.090;5.030;2023-09-19T11:46:51;100709.56;;;19.11;100.00
71907;BME280;59781;52.090;5.030;2023-09-19T11:49:29;100709.31;;;19.31;100.00
71907;BME280;59781;52.090;5.030;2023-09-19T11:51:58;100697.38;;;19.26;100.00
71907;BME280;59781;52.090;5.030;2023-09-19T11:54:31;100705.25;;;19.04;100.00
71907;BME280;59781;52.090;5.030;2023-09-19T11:56:59;100714.03;;;19.06;100.00
71907;BME280;59781;52.090;5.030;2023-09-19T11:59:30;100714.38;;;18.98;100.00
71907;BME280;59781;52.090;5.030;2023-09-19T12:02:04;100715.66;;;18.77;100.00
71907;BME280;59781;52.090;5.030;2023-09-19T12:04:39;100721.53;;;18.80;100.00
71907;BME280;59781;52.090;5.030;2023-09-19T12:07:14;100707.66;;;18.82;100.00
71907;BME280;59781;52.090;5.030;2023-09-19T12:09:45;100713.41;;;18.74;100.00
71907;BME280;59781;52.090;5.030;2023-09-19T12:12:26;100722.47;;;18.68;100.00
71907;BME280;59781;52.090;5.030;2023-09-19T12:14:54;100718.09;;;18.85;100.00
71907;BME280;59781;52.090;5.030;2023-09-19T12:20:08;100717.50;;;18.83;100.00
71907;BME280;59781;52.090;5.030;2023-09-19T12:25:12;100710.50;;;18.87;100.00
71907;BME280;59781;52.090;5.030;2023-09-19T12:27:46;100709.06;;;19.03;100.00
71907;BME280;59781;52.090;5.030;2023-09-19T12:30:18;100723.19;;;18.81;100.00
71907;BME280;59781;52.090;5.030;2023-09-19T12:32:46;100717.13;;;18.98;100.00
71907;BME280;59781;52.090;5.030;2023-09-19T12:35:47;100712.91;;;19.13;100.00
71907;BME280;59781;52.090;5.030;2023-09-19T12:38:28;100696.94;;;19.59;100.00
71907;BME280;59781;52.090;5.030;2023-09-19T12:40:57;100697.84;;;19.53;100.00
71907;BME280;59781;52.090;5.030;2023-09-19T12:43:28;100712.88;;;19.62;100.00
71907;BME280;59781;52.090;5.030;2023-09-19T12:45:56;100716.78;;;19.66;100.00
71907;BME280;59781;52.090;5.030;2023-09-19T12:48:23;100717.84;;;19.35;100.00
71907;BME280;59781;52.090;5.030;2023-09-19T12:51:03;100736.13;;;19.04;100.00
71907;BME280;59781;52.090;5.030;2023-09-19T12:53:35;100727.97;;;19.16;100.00
71907;BME280;59781;52.090;5.030;2023-09-19T12:56:05;100709.63;;;19.23;100.00
71907;BME280;59781;52.090;5.030;2023-09-19T12:58:35;100726.78;;;19.12;100.00
71907;BME280;59781;52.090;5.030;2023-09-19T13:01:25;100729.59;;;19.05;100.00
71907;BME280;59781;52.090;5.030;2023-09-19T13:04:18;100715.00;;;19.30;100.00
71907;BME280;59781;52.090;5.030;2023-09-19T13:06:52;100703.69;;;19.26;100.00
71907;BME280;59781;52.090;5.030;2023-09-19T13:09:21;100707.88;;;19.29;100.00
71907;BME280;59781;52.090;5.030;2023-09-19T13:11:50;100720.81;;;19.33;100.00
71907;BME280;59781;52.090;5.030;2023-09-19T13:14:20;100719.25;;;19.56;100.00
71907;BME280;59781;52.090;5.030;2023-09-19T13:17:02;100720.47;;;19.60;100.00
71907;BME280;59781;52.090;5.030;2023-09-19T13:19:48;100722.59;;;19.28;100.00
71907;BME280;59781;52.090;5.030;2023-09-19T13:22:43;100716.47;;;19.14;100.00
71907;BME280;59781;52.090;5.030;2023-09-19T13:25:21;100707.59;;;19.18;100.00
71907;BME280;59781;52.090;5.030;2023-09-19T13:27:55;100720.63;;;19.16;100.00
71907;BME280;59781;52.090;5.030;2023-09-19T13:30:24;100710.72;;;19.34;100.00
71907;BME280;59781;52.090;5.030;2023-09-19T13:32:52;100707.06;;;19.70;100.00
71907;BME280;59781;52.090;5.030;2023-09-19T13:35:30;100704.06;;;19.30;100.00
71907;BME280;59781;52.090;5.030;2023-09-19T13:37:56;100719.50;;;19.06;100.00
71907;BME280;59781;52.090;5.030;2023-09-19T13:40:21;100708.81;;;19.04;100.00
71907;BME280;59781;52.090;5.030;2023-09-19T13:42:47;100702.59;;;18.97;100.00
71907;BME280;59781;52.090;5.030;2023-09-19T13:45:13;100710.03;;;19.08;100.00
71907;BME280;59781;52.090;5.030;2023-09-19T13:47:42;100701.44;;;19.23;100.00
71907;BME280;59781;52.090;5.030;2023-09-19T13:50:08;100703.53;;;18.91;100.00
71907;BME280;59781;52.090;5.030;2023-09-19T13:52:34;100685.84;;;19.12;100.00
71907;BME280;59781;52.090;5.030;2023-09-19T13:55:00;100692.03;;;19.19;100.00
71907;BME280;59781;52.090;5.030;2023-09-19T13:57:26;100700.47;;;19.17;100.00
71907;BME280;59781;52.090;5.030;2023-09-19T13:59:52;100702.81;;;19.14;100.00
71907;BME280;59781;52.090;5.030;2023-09-19T14:02:24;100682.47;;;18.98;100.00
71907;BME280;59781;52.090;5.030;2023-09-19T14:04:51;100706.19;;;18.98;100.00
71907;BME280;59781;52.090;5.030;2023-09-19T14:07:18;100714.81;;;18.95;100.00
71907;BME280;59781;52.090;5.030;2023-09-19T14:09:46;100699.22;;;18.83;100.00
71907;BME280;59781;52.090;5.030;2023-09-19T14:12:14;100691.72;;;18.60;100.00
71907;BME280;59781;52.090;5.030;2023-09-19T14:14:39;100699.81;;;18.67;100.00
71907;BME280;59781;52.090;5.030;2023-09-19T14:17:06;100693.72;;;18.72;100.00
71907;BME280;59781;52.090;5.030;2023-09-19T14:19:33;100695.06;;;18.81;100.00